createdAt,value
2023-04-17T00:00:43.325Z,1.63
2023-04-17T00:03:14.210Z,2.20
2023-04-17T00:05:45.608Z,1.73
2023-04-17T00:08:13.320Z,2.42
2023-04-17T00:10:40.903Z,2.33
2023-04-17T00:13:08.538Z,2.15
2023-04-17T00:15:36.083Z,1.80
2023-04-17T00:18:03.885Z,2.50
2023-04-17T00:20:32.912Z,2.38
2023-04-17T00:23:00.694Z,2.30
2023-04-17T00:25:28.268Z,2.58
2023-04-17T00:27:55.897Z,1.95
2023-04-17T00:30:23.477Z,2.53
2023-04-17T00:32:51.107Z,1.98
2023-04-17T00:35:18.889Z,2.50
2023-04-17T00:37:48.572Z,2.42
2023-04-17T00:40:16.432Z,2.70
2023-04-17T00:42:45.650Z,2.77
2023-04-17T00:45:13.252Z,2.50
2023-04-17T00:47:41.131Z,2.53
2023-04-17T00:50:09.399Z,3.78
2023-04-17T00:52:36.964Z,3.05
2023-04-17T00:55:07.840Z,3.17
2023-04-17T00:57:35.484Z,2.53
2023-04-17T01:00:03.225Z,2.50
2023-04-17T01:02:32.393Z,2.90
2023-04-17T01:05:00.064Z,3.15
2023-04-17T01:07:28.443Z,3.00
2023-04-17T01:09:56.353Z,2.88
2023-04-17T01:12:25.820Z,3.35
2023-04-17T01:14:53.518Z,3.60
2023-04-17T01:17:21.760Z,3.60
2023-04-17T01:19:49.756Z,4.30
2023-04-17T01:22:17.614Z,4.43
2023-04-17T01:24:46.828Z,4.00
2023-04-17T01:27:15.182Z,4.13
2023-04-17T01:29:42.898Z,3.90
2023-04-17T01:32:10.795Z,3.63
2023-04-17T01:34:38.458Z,3.50
2023-04-17T01:37:09.636Z,4.15
2023-04-17T01:39:37.969Z,4.40
2023-04-17T01:42:07.351Z,4.53
2023-04-17T01:44:36.777Z,4.30
2023-04-17T01:47:04.472Z,3.95
2023-04-17T01:49:32.316Z,4.10
2023-04-17T01:52:00.378Z,4.25
2023-04-17T01:54:28.002Z,4.18
2023-04-17T01:56:56.782Z,3.50
2023-04-17T01:59:25.979Z,3.92
2023-04-17T02:01:53.939Z,4.45
2023-04-17T02:04:21.842Z,3.72
2023-04-17T02:06:49.567Z,4.40
2023-04-17T02:09:17.590Z,4.87
2023-04-17T02:11:45.511Z,4.65
2023-04-17T02:14:13.212Z,4.70
2023-04-17T02:16:45.813Z,4.15
2023-04-17T02:19:14.279Z,4.40
2023-04-17T02:21:42.207Z,4.03
2023-04-17T02:24:09.939Z,4.15
2023-04-17T02:26:37.894Z,4.63
2023-04-17T02:29:05.556Z,4.47
2023-04-17T02:31:33.280Z,4.35
2023-04-17T02:34:02.998Z,4.37
2023-04-17T02:36:30.697Z,4.32
2023-04-17T02:38:58.669Z,4.65
2023-04-17T02:41:26.270Z,4.82
2023-04-17T02:43:53.853Z,4.57
2023-04-17T02:46:21.514Z,4.40
2023-04-17T02:48:49.136Z,4.85
2023-04-17T02:51:18.533Z,5.13
2023-04-17T02:53:46.330Z,5.60
2023-04-17T02:56:13.882Z,5.53
2023-04-17T02:58:45.467Z,5.53
2023-04-17T03:01:13.389Z,5.03
2023-04-17T03:03:41.663Z,5.07
2023-04-17T03:06:10.349Z,5.65
2023-04-17T03:08:39.419Z,5.57
2023-04-17T03:11:07.104Z,4.93
2023-04-17T03:13:36.531Z,5.50
2023-04-17T03:16:04.824Z,6.80
2023-04-17T03:18:32.505Z,5.72
2023-04-17T03:21:00.209Z,6.10
2023-04-17T03:23:27.858Z,5.17
2023-04-17T03:25:56.717Z,5.85
2023-04-17T03:28:24.886Z,5.38
2023-04-17T03:30:54.391Z,6.03
2023-04-17T03:33:21.952Z,6.18
2023-04-17T03:35:49.553Z,5.63
2023-04-17T03:38:17.560Z,5.93
2023-04-17T03:40:45.134Z,6.25
2023-04-17T03:43:14.218Z,6.40
2023-04-17T03:45:42.437Z,6.72
2023-04-17T03:48:09.978Z,7.60
2023-04-17T03:50:37.728Z,6.72
2023-04-17T03:53:05.527Z,6.63
2023-04-17T03:55:33.013Z,6.43
2023-04-17T03:58:01.246Z,6.72
2023-04-17T04:00:31.729Z,6.83
2023-04-17T04:02:59.451Z,6.25
2023-04-17T04:05:27.481Z,5.85
2023-04-17T04:07:55.298Z,5.78
2023-04-17T04:10:22.851Z,6.28
2023-04-17T04:12:51.564Z,6.37
2023-04-17T04:15:19.159Z,7.10
2023-04-17T04:17:48.114Z,7.72
2023-04-17T04:20:15.979Z,6.60
2023-04-17T04:22:44.909Z,6.35
2023-04-17T04:25:12.528Z,6.23
2023-04-17T04:27:40.184Z,6.68
2023-04-17T04:30:10.415Z,6.30
2023-04-17T04:32:38.517Z,5.43
2023-04-17T04:35:10.016Z,5.63
2023-04-17T04:37:38.740Z,6.63
2023-04-17T04:40:10.634Z,5.97
2023-04-17T04:42:39.789Z,6.32
2023-04-17T04:45:07.893Z,5.97
2023-04-17T04:47:36.045Z,5.97
2023-04-17T04:50:04.258Z,5.47
2023-04-17T04:52:33.112Z,6.28
2023-04-17T04:55:00.727Z,5.50
2023-04-17T04:57:28.536Z,5.70
2023-04-17T04:59:56.250Z,6.18
2023-04-17T05:02:24.412Z,6.33
2023-04-17T05:04:53.141Z,5.55
2023-04-17T05:07:20.722Z,6.10
2023-04-17T05:09:50.222Z,6.00
2023-04-17T05:12:17.966Z,5.22
2023-04-17T05:14:45.474Z,5.90
2023-04-17T05:17:13.053Z,6.32
2023-04-17T05:19:40.737Z,6.50
2023-04-17T05:22:08.487Z,6.25
2023-04-17T05:24:36.043Z,6.20
2023-04-17T05:27:05.616Z,5.77
2023-04-17T05:29:33.832Z,6.03
2023-04-17T05:32:01.503Z,6.40
2023-04-17T05:34:29.425Z,5.68
2023-04-17T05:36:57.130Z,5.28
2023-04-17T05:39:24.717Z,5.70
2023-04-17T05:41:52.386Z,5.80
2023-04-17T05:44:21.357Z,5.50
2023-04-17T05:46:48.953Z,5.35
2023-04-17T05:49:17.396Z,4.35
2023-04-17T05:51:45.136Z,4.83
2023-04-17T05:54:12.775Z,5.15
2023-04-17T05:56:40.495Z,4.25
2023-04-17T05:59:08.102Z,3.78
2023-04-17T06:01:37.378Z,3.70
2023-04-17T06:04:05.369Z,3.30
2023-04-17T06:06:33.117Z,3.85
2023-04-17T06:09:00.948Z,3.75
2023-04-17T06:11:28.844Z,3.60
2023-04-17T06:13:56.752Z,3.28
2023-04-17T06:16:24.305Z,3.77
2023-04-17T06:18:53.326Z,4.20
2023-04-17T06:24:06.990Z,3.47
2023-04-17T06:26:34.568Z,3.17
2023-04-17T06:29:02.340Z,3.00
2023-04-17T06:31:30.223Z,3.00
2023-04-17T06:33:59.280Z,3.70
2023-04-17T06:36:27.215Z,4.07
2023-04-17T06:38:55.212Z,3.47
2023-04-17T06:41:25.464Z,3.60
2023-04-17T06:43:53.078Z,3.85
2023-04-17T06:46:20.898Z,3.20
2023-04-17T06:48:49.406Z,3.90
2023-04-17T06:51:20.834Z,3.60
2023-04-17T06:53:48.694Z,3.47
2023-04-17T06:56:17.165Z,3.85
2023-04-17T06:58:46.605Z,3.53
2023-04-17T07:01:15.191Z,3.35
2023-04-17T07:03:43.664Z,3.33
2023-04-17T07:06:11.874Z,3.60
2023-04-17T07:08:41.082Z,3.42
2023-04-17T07:11:08.687Z,3.60
2023-04-17T07:13:36.374Z,3.70
2023-04-17T07:16:04.507Z,3.55
2023-04-17T07:18:32.087Z,3.27
2023-04-17T07:20:59.826Z,3.50
2023-04-17T07:23:27.622Z,3.50
2023-04-17T07:25:56.551Z,2.63
2023-04-17T07:28:25.040Z,2.60
2023-04-17T07:30:55.112Z,2.67
2023-04-17T07:33:22.709Z,2.50
2023-04-17T07:35:50.369Z,2.65
2023-04-17T07:38:18.396Z,2.78
2023-04-17T07:40:45.963Z,2.47
2023-04-17T07:43:16.002Z,2.20
2023-04-17T07:45:43.755Z,2.35
2023-04-17T07:48:11.893Z,2.80
2023-04-17T07:50:39.455Z,2.60
2023-04-17T07:53:10.338Z,2.45
2023-04-17T07:55:38.654Z,2.13
2023-04-17T07:58:06.495Z,2.88
2023-04-17T08:00:35.889Z,2.22
2023-04-17T08:03:03.859Z,1.70
2023-04-17T08:05:31.632Z,2.38
2023-04-17T08:08:00.406Z,1.97
2023-04-17T08:10:28.079Z,2.67
2023-04-17T08:12:55.855Z,2.25
2023-04-17T08:15:23.861Z,2.05
2023-04-17T08:17:53.055Z,2.38
2023-04-17T08:20:22.511Z,2.30
2023-04-17T08:22:50.728Z,2.05
2023-04-17T08:25:18.375Z,2.40
2023-04-17T08:27:46.403Z,2.03
2023-04-17T08:30:18.601Z,1.90
2023-04-17T08:32:47.283Z,1.63
2023-04-17T08:35:18.073Z,2.33
2023-04-17T08:37:46.838Z,1.73
2023-04-17T08:40:16.283Z,1.85
2023-04-17T08:42:44.037Z,1.90
2023-04-17T08:45:12.531Z,2.23
2023-04-17T08:47:40.938Z,2.88
2023-04-17T08:50:10.046Z,1.52
2023-04-17T08:52:42.599Z,1.90
2023-04-17T08:55:12.123Z,1.90
2023-04-17T08:57:54.289Z,2.30
2023-04-17T09:00:25.437Z,2.28
2023-04-17T09:02:54.397Z,2.10
2023-04-17T09:05:22.308Z,2.17
2023-04-17T09:07:52.165Z,2.00
2023-04-17T09:10:19.807Z,2.23
2023-04-17T09:13:00.164Z,2.28
2023-04-17T09:15:28.225Z,2.17
2023-04-17T09:17:55.932Z,2.45
2023-04-17T09:20:24.546Z,2.58
2023-04-17T09:22:59.593Z,2.00
2023-04-17T09:25:28.256Z,2.15
2023-04-17T09:27:56.239Z,2.10
2023-04-17T09:30:27.026Z,1.38
2023-04-17T09:33:04.292Z,0.75
2023-04-17T09:35:32.815Z,1.70
2023-04-17T09:38:01.853Z,1.73
2023-04-17T09:40:37.166Z,1.63
2023-04-17T09:43:06.105Z,1.80
2023-04-17T09:45:37.518Z,1.70
2023-04-17T09:48:06.936Z,1.73
2023-04-17T09:50:36.485Z,1.67
2023-04-17T09:53:07.230Z,1.80
2023-04-17T09:55:36.872Z,1.60
2023-04-17T09:58:05.538Z,2.00
2023-04-17T10:00:33.212Z,1.90
2023-04-17T10:03:01.123Z,1.77
2023-04-17T10:05:31.660Z,1.80
2023-04-17T10:08:00.128Z,1.90
2023-04-17T10:10:31.031Z,1.92
2023-04-17T10:13:00.219Z,2.00
2023-04-17T10:15:28.069Z,1.70
2023-04-17T10:17:57.683Z,2.30
2023-04-17T10:20:36.691Z,2.25
2023-04-17T10:23:26.485Z,2.90
2023-04-17T10:26:25.801Z,2.90
2023-04-17T10:28:54.304Z,2.50
2023-04-17T10:31:23.247Z,2.63
2023-04-17T10:33:52.349Z,2.63
2023-04-17T10:36:34.852Z,2.30
2023-04-17T10:39:13.274Z,2.70
2023-04-17T10:41:56.221Z,3.00
2023-04-17T10:44:26.335Z,3.45
2023-04-17T10:46:53.921Z,4.18
2023-04-17T10:49:22.838Z,4.10
2023-04-17T10:51:52.253Z,3.37
2023-04-17T10:54:19.959Z,3.40
2023-04-17T10:56:48.562Z,3.05
2023-04-17T10:59:17.401Z,3.53
2023-04-17T11:02:01.244Z,3.40
2023-04-17T11:04:30.504Z,3.00
2023-04-17T11:06:58.233Z,2.88
2023-04-17T11:09:27.916Z,2.70
2023-04-17T11:11:57.001Z,2.92
2023-04-17T11:14:24.693Z,3.25
2023-04-17T11:16:52.778Z,3.30
2023-04-17T11:19:23.969Z,2.42
2023-04-17T11:21:52.341Z,2.40
2023-04-17T11:24:23.719Z,2.72
2023-04-17T11:26:51.483Z,2.75
2023-04-17T11:29:19.638Z,2.47
2023-04-17T11:31:47.947Z,2.88
2023-04-17T11:34:16.460Z,3.15
2023-04-17T11:36:51.226Z,4.30
2023-04-17T11:39:19.959Z,1.63
2023-04-17T11:41:47.594Z,2.50
2023-04-17T11:44:16.057Z,2.85
2023-04-17T11:46:43.855Z,2.95
2023-04-17T11:49:11.705Z,2.33
2023-04-17T11:51:40.717Z,2.78
2023-04-17T11:54:10.082Z,2.87
2023-04-17T11:56:37.788Z,2.22
2023-04-17T11:59:06.188Z,2.35
2023-04-17T12:01:34.100Z,2.75
2023-04-17T12:04:01.916Z,2.40
2023-04-17T12:06:36.911Z,2.23
2023-04-17T12:09:06.361Z,2.30
2023-04-17T12:11:35.921Z,2.15
2023-04-17T12:14:05.301Z,2.40
2023-04-17T12:16:33.098Z,1.80
2023-04-17T12:19:01.015Z,2.23
2023-04-17T12:21:28.694Z,2.38
2023-04-17T12:23:56.605Z,2.42
2023-04-17T12:26:25.211Z,2.10
2023-04-17T12:28:54.275Z,1.73
2023-04-17T12:31:21.954Z,1.50
2023-04-17T12:33:49.950Z,2.75
2023-04-17T12:36:17.914Z,1.80
2023-04-17T12:38:46.437Z,2.17
2023-04-17T12:41:14.062Z,2.47
2023-04-17T12:43:41.826Z,2.80
2023-04-17T12:46:11.333Z,3.65
2023-04-17T12:48:39.038Z,2.58
2023-04-17T12:51:07.055Z,1.80
2023-04-17T12:53:34.718Z,2.30
2023-04-17T12:56:02.337Z,2.60
2023-04-17T12:58:30.066Z,2.50
2023-04-17T13:00:57.609Z,2.47
2023-04-17T13:03:26.686Z,2.55
2023-04-17T13:05:54.769Z,2.10
2023-04-17T13:08:23.370Z,1.87
2023-04-17T13:10:50.913Z,2.15
2023-04-17T13:13:18.634Z,1.90
2023-04-17T13:15:47.471Z,1.58
2023-04-17T13:20:44.799Z,1.93
2023-04-17T13:23:14.579Z,1.95
2023-04-17T13:25:42.746Z,2.00
2023-04-17T13:28:10.493Z,1.60
2023-04-17T13:30:38.175Z,2.60
2023-04-17T13:33:05.912Z,2.07
2023-04-17T13:35:33.671Z,2.90
2023-04-17T13:38:03.111Z,2.30
2023-04-17T13:40:31.041Z,1.30
2023-04-17T13:42:59.094Z,2.53
2023-04-17T13:45:26.821Z,2.47
2023-04-17T13:47:54.447Z,2.60
2023-04-17T13:50:22.094Z,2.47
2023-04-17T13:52:49.711Z,2.65
2023-04-17T13:55:18.901Z,2.60
2023-04-17T13:57:46.514Z,2.83
2023-04-17T14:00:14.973Z,3.00
2023-04-17T14:02:42.748Z,3.00
2023-04-17T14:05:11.830Z,2.97
2023-04-17T14:07:39.584Z,3.50
2023-04-17T14:10:07.996Z,3.17
2023-04-17T14:12:37.220Z,3.13
2023-04-17T14:15:05.213Z,2.03
2023-04-17T14:17:34.983Z,2.72
2023-04-17T14:20:02.745Z,1.70
2023-04-17T14:22:30.633Z,3.73
2023-04-17T14:24:58.269Z,3.28
2023-04-17T14:27:25.884Z,1.98
2023-04-17T14:29:55.041Z,3.67
2023-04-17T14:32:22.815Z,3.28
2023-04-17T14:34:50.398Z,3.40
2023-04-17T14:37:18.241Z,3.85
2023-04-17T14:39:45.898Z,4.13
2023-04-17T14:42:13.557Z,3.60
2023-04-17T14:44:43.310Z,3.58
2023-04-17T14:47:13.186Z,2.63
2023-04-17T14:49:40.921Z,3.30
2023-04-17T14:52:08.640Z,1.80
2023-04-17T14:54:36.299Z,4.20
2023-04-17T14:57:04.105Z,4.25
2023-04-17T14:59:31.869Z,3.80
2023-04-17T15:01:59.689Z,3.15
2023-04-17T15:04:28.808Z,3.08
2023-04-17T15:06:58.296Z,3.25
2023-04-17T15:09:25.853Z,3.72
2023-04-17T15:11:53.589Z,4.07
2023-04-17T15:14:21.688Z,3.55
2023-04-17T15:16:49.571Z,3.88
2023-04-17T15:19:17.655Z,3.72
2023-04-17T15:21:46.716Z,3.40
2023-04-17T15:24:14.939Z,4.40
2023-04-17T15:26:44.080Z,3.78
2023-04-17T15:29:13.311Z,4.10
2023-04-17T15:31:40.963Z,4.53
2023-04-17T15:34:08.910Z,3.97
2023-04-17T15:36:36.571Z,4.07
2023-04-17T15:39:05.487Z,4.10
2023-04-17T15:41:33.249Z,5.07
2023-04-17T15:44:06.835Z,5.47
2023-04-17T15:46:34.453Z,4.20
2023-04-17T15:49:08.981Z,4.50
2023-04-17T15:51:38.957Z,4.47
2023-04-17T15:54:11.787Z,4.72
2023-04-17T15:56:39.807Z,4.82
2023-04-17T15:59:07.417Z,5.00
2023-04-17T16:01:35.081Z,4.50
2023-04-17T16:04:03.144Z,5.60
2023-04-17T16:06:31.244Z,5.07
2023-04-17T16:08:58.951Z,5.22
2023-04-17T16:11:29.091Z,5.18
2023-04-17T16:13:56.712Z,5.30
2023-04-17T16:16:24.254Z,5.88
2023-04-17T16:18:52.041Z,5.55
2023-04-17T16:21:19.618Z,4.07
2023-04-17T16:23:49.369Z,4.95
2023-04-17T16:26:17.489Z,5.33
2023-04-17T16:28:46.777Z,5.78
2023-04-17T16:31:16.442Z,5.85
2023-04-17T16:33:44.955Z,5.78
2023-04-17T16:36:12.506Z,6.10
2023-04-17T16:38:40.245Z,6.53
2023-04-17T16:41:07.996Z,6.40
2023-04-17T16:43:35.560Z,6.60
2023-04-17T16:46:14.237Z,5.85
2023-04-17T16:48:46.678Z,6.32
2023-04-17T16:51:15.236Z,6.63
2023-04-17T16:53:44.286Z,6.53
2023-04-17T16:56:12.220Z,6.05
2023-04-17T16:58:39.816Z,6.03
2023-04-17T17:01:08.907Z,6.75
2023-04-17T17:03:37.956Z,6.83
2023-04-17T17:06:07.040Z,7.60
2023-04-17T17:08:34.812Z,7.20
2023-04-17T17:11:03.651Z,7.93
2023-04-17T17:13:31.235Z,7.25
2023-04-17T17:15:59.010Z,7.67
2023-04-17T17:18:28.288Z,6.97
2023-04-17T17:20:58.539Z,7.03
2023-04-17T17:23:26.239Z,7.95
2023-04-17T17:25:53.941Z,7.28
2023-04-17T17:28:21.455Z,6.63
2023-04-17T17:30:49.041Z,5.97
2023-04-17T17:33:17.785Z,6.18
2023-04-17T17:35:46.956Z,6.15
2023-04-17T17:38:15.117Z,5.93
2023-04-17T17:40:45.367Z,6.30
2023-04-17T17:43:13.632Z,6.38
2023-04-17T17:45:41.208Z,6.40
2023-04-17T17:48:09.814Z,6.28
2023-04-17T17:50:37.437Z,6.45
2023-04-17T17:53:06.493Z,6.57
2023-04-17T17:55:37.776Z,6.47
2023-04-17T17:58:06.587Z,6.90
2023-04-17T18:00:34.767Z,6.85
2023-04-17T18:03:02.725Z,7.10
2023-04-17T18:05:31.875Z,7.03
2023-04-17T18:07:59.491Z,6.72
2023-04-17T18:10:28.565Z,6.47
2023-04-17T18:12:56.220Z,6.88
2023-04-17T18:15:23.798Z,6.50
2023-04-17T18:17:51.681Z,7.13
2023-04-17T18:20:19.320Z,6.45
2023-04-17T18:22:46.847Z,6.90
2023-04-17T18:25:15.888Z,7.38
2023-04-17T18:27:45.134Z,6.63
2023-04-17T18:30:13.154Z,7.67
2023-04-17T18:32:40.898Z,7.65
2023-04-17T18:35:09.180Z,7.40
2023-04-17T18:37:36.720Z,8.23
2023-04-17T18:40:06.467Z,7.22
2023-04-17T18:42:34.314Z,7.43
2023-04-17T18:45:04.814Z,7.40
2023-04-17T18:47:32.667Z,7.22
2023-04-17T18:50:00.381Z,7.57
2023-04-17T18:52:27.907Z,7.15
2023-04-17T18:54:55.740Z,7.47
2023-04-17T18:57:23.325Z,7.22
2023-04-17T18:59:50.900Z,6.88
2023-04-17T19:02:21.569Z,7.45
2023-04-17T19:04:49.309Z,7.20
2023-04-17T19:07:17.865Z,8.30
2023-04-17T19:09:45.948Z,7.32
2023-04-17T19:12:13.543Z,7.00
2023-04-17T19:14:41.239Z,7.78
2023-04-17T19:17:11.803Z,7.65
2023-04-17T19:19:41.354Z,7.00
2023-04-17T19:22:08.881Z,8.45
2023-04-17T19:24:36.526Z,7.82
2023-04-17T19:27:04.189Z,7.65
2023-04-17T19:29:31.765Z,7.45
2023-04-17T19:31:59.841Z,7.93
2023-04-17T19:34:27.838Z,8.30
2023-04-17T19:36:56.736Z,8.20
2023-04-17T19:39:24.614Z,8.20
2023-04-17T19:41:52.484Z,8.70
2023-04-17T19:44:25.911Z,8.20
2023-04-17T19:46:55.210Z,8.48
2023-04-17T19:49:22.861Z,8.00
2023-04-17T19:51:50.719Z,9.23
2023-04-17T19:54:20.030Z,8.07
2023-04-17T19:56:47.574Z,8.83
2023-04-17T19:59:16.155Z,9.23
2023-04-17T20:01:44.900Z,9.75
2023-04-17T20:04:12.618Z,7.93
2023-04-17T20:06:40.897Z,8.25
2023-04-17T20:09:08.781Z,9.03
2023-04-17T20:11:37.831Z,8.93
2023-04-17T20:14:05.620Z,8.38
2023-04-17T20:16:33.466Z,7.82
2023-04-17T20:19:01.263Z,8.63
2023-04-17T20:21:28.946Z,7.97
2023-04-17T20:23:57.769Z,8.00
2023-04-17T20:26:25.348Z,8.35
2023-04-17T20:28:55.131Z,8.13
2023-04-17T20:31:23.313Z,7.20
2023-04-17T20:33:50.968Z,6.97
2023-04-17T20:36:18.601Z,6.90
2023-04-17T20:38:46.510Z,6.28
2023-04-17T20:41:14.101Z,5.93
2023-04-17T20:43:41.869Z,5.57
2023-04-17T20:46:11.134Z,5.87
2023-04-17T20:48:38.704Z,4.75
2023-04-17T20:51:06.480Z,5.70
2023-04-17T20:53:34.204Z,5.05
2023-04-17T20:56:01.781Z,6.45
2023-04-17T20:58:29.403Z,5.17
2023-04-17T21:01:01.375Z,5.25
2023-04-17T21:03:31.367Z,5.00
2023-04-17T21:05:59.252Z,4.40
2023-04-17T21:08:26.796Z,4.13
2023-04-17T21:10:54.359Z,3.97
2023-04-17T21:13:22.841Z,4.15
2023-04-17T21:15:50.539Z,4.10
2023-04-17T21:18:18.154Z,4.10
2023-04-17T21:20:47.235Z,3.80
2023-04-17T21:23:15.058Z,3.97
2023-04-17T21:25:42.588Z,3.50
2023-04-17T21:28:10.351Z,3.40
2023-04-17T21:30:37.947Z,3.92
2023-04-17T21:33:05.535Z,3.70
2023-04-17T21:35:33.347Z,3.30
2023-04-17T21:38:02.274Z,3.55
2023-04-17T21:40:33.435Z,3.53
2023-04-17T21:43:01.953Z,3.00
2023-04-17T21:45:29.494Z,3.00
2023-04-17T21:47:57.175Z,2.90
2023-04-17T21:50:25.029Z,3.00
2023-04-17T21:52:52.721Z,3.22
2023-04-17T21:55:21.753Z,3.08
2023-04-17T21:57:49.695Z,2.60
2023-04-17T22:00:17.602Z,3.00
2023-04-17T22:02:45.371Z,3.10
2023-04-17T22:05:13.285Z,2.60
2023-04-17T22:07:53.830Z,2.72
2023-04-17T22:10:24.322Z,2.35
2023-04-17T22:12:53.959Z,2.70
2023-04-17T22:15:21.529Z,2.30
2023-04-17T22:17:49.374Z,2.40
2023-04-17T22:20:17.540Z,2.50
2023-04-17T22:22:45.173Z,2.53
2023-04-17T22:25:13.303Z,2.57
2023-04-17T22:27:42.982Z,2.80
2023-04-17T22:30:10.711Z,2.58
2023-04-17T22:32:38.569Z,2.08
2023-04-17T22:35:06.671Z,2.70
2023-04-17T22:37:34.249Z,2.63
2023-04-17T22:40:02.054Z,2.80
2023-04-17T22:42:29.665Z,2.65
2023-04-17T22:44:58.621Z,2.58
2023-04-17T22:47:26.512Z,2.42
2023-04-17T22:49:54.061Z,2.97
2023-04-17T22:52:21.659Z,2.83
2023-04-17T22:54:49.552Z,2.83
2023-04-17T22:57:18.032Z,2.20
2023-04-17T22:59:45.602Z,3.30
2023-04-17T23:02:15.416Z,3.00
2023-04-17T23:04:42.959Z,2.85
2023-04-17T23:07:10.647Z,2.75
2023-04-17T23:09:38.727Z,3.45
2023-04-17T23:12:07.153Z,3.28
2023-04-17T23:14:34.821Z,3.50
2023-04-17T23:17:03.324Z,3.38
2023-04-17T23:19:32.214Z,3.40
2023-04-17T23:22:01.918Z,4.05
2023-04-17T23:24:33.172Z,3.53
2023-04-17T23:27:01.873Z,3.67
2023-04-17T23:29:29.514Z,3.90
2023-04-17T23:31:57.380Z,4.07
2023-04-17T23:34:24.975Z,3.35
2023-04-17T23:36:53.902Z,3.55
2023-04-17T23:39:21.922Z,4.00
2023-04-17T23:41:50.320Z,4.20
2023-04-17T23:44:18.514Z,3.60
2023-04-17T23:46:46.266Z,4.50
2023-04-17T23:49:13.876Z,4.15
2023-04-17T23:51:41.445Z,4.47
2023-04-17T23:54:10.547Z,4.50
2023-04-17T23:56:38.080Z,4.88
2023-04-17T23:59:06.090Z,5.00
